FSIA/SEZ METAR and TAF weather

Enter ICAO airport designator
Station Type Date Time Source
FSIA METAR 2022/06/30 14:00 UTC NOAA

FSIA 301400Z 13014G33KT 060V200 9999 FEW010 BKN019 25/22 Q1011 NOSIG


Station Type Date Time Source
FSIA Decoded METAR 2022/06/30 14:00 UTC NOAA

Seychelles Inter-National Airport, Seychelles (FSIA) 04-40S 055-31E 3M
Jun 30, 2022 - 10:00 AM EDT / 2022.06.30 1400 UTC
Wind: from the SE (130 degrees) at 16 MPH (14 KT) gusting to 38 MPH (33 KT) (direction variable):0
Visibility: greater than 7 mile(s):0
Sky conditions: mostly cloudy
Temperature: 77 F (25 C)
Dew Point: 71 F (22 C)
Relative Humidity: 83%
Pressure (altimeter): 29.85 in. Hg (1011 hPa)
ob: FSIA 301400Z 13014G33KT 060V200 9999 FEW010 BKN019 25/22 Q1011 NOSIG
cycle: 14

Station Type Date Time Source
FSIA TAF 2022/06/30 06:32 UTC NOAA

TAF FSIA 300539Z 3006/0106 13017G30KT 9999 BKN022
TEMPO 3006/3012 8000 SHRA FEW010 FEW016CB BKN018

Example: see airport list